createdAt,value
2019-06-26T00:00:03.005Z,21.36
2019-06-26T00:01:02.929Z,21.26
2019-06-26T00:02:02.908Z,21.33
2019-06-26T00:03:02.794Z,21.35
2019-06-26T00:04:02.716Z,21.45
2019-06-26T00:05:02.688Z,21.42
2019-06-26T00:06:02.711Z,21.45
2019-06-26T00:07:02.509Z,21.53
2019-06-26T00:08:02.436Z,21.44
2019-06-26T00:09:02.456Z,21.48
2019-06-26T00:10:02.298Z,21.35
2019-06-26T00:11:02.228Z,21.31
2019-06-26T00:12:02.158Z,21.31
2019-06-26T00:13:02.090Z,21.35
2019-06-26T00:14:02.034Z,21.21
2019-06-26T00:15:01.992Z,21.21
2019-06-26T00:16:01.889Z,21.21
2019-06-26T00:17:01.808Z,21.24
2019-06-26T00:18:01.738Z,21.19
2019-06-26T00:19:01.667Z,21.19
2019-06-26T00:20:01.631Z,21.20
2019-06-26T00:21:01.527Z,21.14
2019-06-26T00:22:01.456Z,21.17
2019-06-26T00:23:01.388Z,21.12
2019-06-26T00:24:01.315Z,21.14
2019-06-26T00:25:01.247Z,21.16
2019-06-26T00:26:01.176Z,21.12
2019-06-26T00:27:01.325Z,21.19
2019-06-26T00:28:01.044Z,21.12
2019-06-26T00:29:00.999Z,21.16
2019-06-26T00:30:00.896Z,21.16
2019-06-26T00:31:00.825Z,21.12
2019-06-26T00:32:00.756Z,21.21
2019-06-26T00:33:00.690Z,21.17
2019-06-26T00:34:00.616Z,21.21
2019-06-26T00:35:00.558Z,21.31
2019-06-26T00:36:00.513Z,21.26
2019-06-26T00:37:00.406Z,21.29
2019-06-26T00:38:00.334Z,21.35
2019-06-26T00:39:00.265Z,21.27
2019-06-26T00:40:00.196Z,21.24
2019-06-26T00:41:00.226Z,21.21
2019-06-26T00:42:00.059Z,21.23
2019-06-26T00:42:59.985Z,21.17
2019-06-26T00:43:59.914Z,21.24
2019-06-26T00:44:59.851Z,21.19
2019-06-26T00:45:59.774Z,21.19
2019-06-26T00:46:59.705Z,21.17
2019-06-26T00:47:59.634Z,21.21
2019-06-26T00:48:59.564Z,21.20
2019-06-26T00:49:59.501Z,21.19
2019-06-26T00:50:59.423Z,21.12
2019-06-26T00:51:59.354Z,21.09
2019-06-26T00:52:59.283Z,21.14
2019-06-26T00:53:59.212Z,21.05
2019-06-26T00:54:59.143Z,21.05
2019-06-26T00:55:59.074Z,21.08
2019-06-26T00:56:59.006Z,21.14
2019-06-26T00:57:58.933Z,21.16
2019-06-26T00:58:58.861Z,21.21
2019-06-26T00:59:58.792Z,21.27
2019-06-26T01:00:58.722Z,21.27
2019-06-26T01:01:58.653Z,21.27
2019-06-26T01:02:58.581Z,21.30
2019-06-26T01:03:58.511Z,21.31
2019-06-26T01:04:58.446Z,21.31
2019-06-26T01:05:58.380Z,21.33
2019-06-26T01:06:58.301Z,21.21
2019-06-26T01:07:58.231Z,21.24
2019-06-26T01:08:58.192Z,21.27
2019-06-26T01:09:58.089Z,21.29
2019-06-26T01:10:58.019Z,21.31
2019-06-26T01:11:58.052Z,21.30
2019-06-26T01:12:57.879Z,21.27
2019-06-26T01:13:58.489Z,21.21
2019-06-26T01:14:57.738Z,21.29
2019-06-26T01:15:57.681Z,21.19
2019-06-26T01:16:57.698Z,21.24
2019-06-26T01:17:57.527Z,21.26
2019-06-26T01:18:57.458Z,21.24
2019-06-26T01:19:57.388Z,21.27
2019-06-26T01:20:57.317Z,21.36
2019-06-26T01:21:57.347Z,21.29
2019-06-26T01:22:57.176Z,21.30
2019-06-26T01:23:57.106Z,21.36
2019-06-26T01:24:57.035Z,21.35
2019-06-26T01:25:56.965Z,21.35
2019-06-26T01:26:56.895Z,21.33
2019-06-26T01:27:56.829Z,21.30
2019-06-26T01:28:56.755Z,21.36
2019-06-26T01:29:56.685Z,21.31
2019-06-26T01:30:56.621Z,21.29
2019-06-26T01:31:56.571Z,21.35
2019-06-26T01:32:56.476Z,21.36
2019-06-26T01:33:56.405Z,21.31
2019-06-26T01:34:56.334Z,21.35
2019-06-26T01:35:56.264Z,21.35
2019-06-26T01:36:56.194Z,21.31
2019-06-26T01:37:56.127Z,21.41
2019-06-26T01:38:56.057Z,21.27
2019-06-26T01:39:55.986Z,21.35
2019-06-26T01:40:55.914Z,21.30
2019-06-26T01:41:55.948Z,21.26
2019-06-26T01:42:55.777Z,21.20
2019-06-26T01:43:55.703Z,21.17
2019-06-26T01:44:55.804Z,21.09
2019-06-26T01:45:55.562Z,21.16
2019-06-26T01:46:55.492Z,21.12
2019-06-26T01:47:55.421Z,21.06
2019-06-26T01:48:55.355Z,21.09
2019-06-26T01:49:55.281Z,20.99
2019-06-26T01:50:55.212Z,20.93
2019-06-26T01:51:55.141Z,20.96
2019-06-26T01:52:55.071Z,20.98
2019-06-26T01:53:55.001Z,20.90
2019-06-26T01:54:54.931Z,20.89
2019-06-26T01:55:54.863Z,20.99
2019-06-26T01:56:54.790Z,20.83
2019-06-26T01:57:54.724Z,20.87
2019-06-26T01:58:54.650Z,20.84
2019-06-26T01:59:54.578Z,20.86
2019-06-26T02:00:54.521Z,20.91
2019-06-26T02:01:54.438Z,20.86
2019-06-26T02:02:54.367Z,20.87
2019-06-26T02:03:54.299Z,20.87
2019-06-26T02:04:54.228Z,20.86
2019-06-26T02:05:54.156Z,20.82
2019-06-26T02:06:54.086Z,20.76
2019-06-26T02:07:54.017Z,20.74
2019-06-26T02:08:53.947Z,20.82
2019-06-26T02:09:53.876Z,20.71
2019-06-26T02:10:53.820Z,20.83
2019-06-26T02:11:53.733Z,20.76
2019-06-26T02:12:53.765Z,20.79
2019-06-26T02:13:53.596Z,20.82
2019-06-26T02:14:53.546Z,20.76
2019-06-26T02:15:53.452Z,20.69
2019-06-26T02:16:53.387Z,20.68
2019-06-26T02:17:53.312Z,20.74
2019-06-26T02:18:53.242Z,20.65
2019-06-26T02:19:53.172Z,20.65
2019-06-26T02:20:53.123Z,20.65
2019-06-26T02:21:53.031Z,20.66
2019-06-26T02:22:52.960Z,20.71
2019-06-26T02:23:52.891Z,20.68
2019-06-26T02:24:52.819Z,20.71
2019-06-26T02:25:52.754Z,20.80
2019-06-26T02:26:52.684Z,20.83
2019-06-26T02:27:52.623Z,20.83
2019-06-26T02:28:52.538Z,20.79
2019-06-26T02:29:52.468Z,20.80
2019-06-26T02:30:52.400Z,20.82
2019-06-26T02:31:52.326Z,20.82
2019-06-26T02:32:52.258Z,20.74
2019-06-26T02:33:52.186Z,20.82
2019-06-26T02:34:52.116Z,20.90
2019-06-26T02:35:52.047Z,20.87
2019-06-26T02:36:51.975Z,20.91
2019-06-26T02:37:51.906Z,20.87
2019-06-26T02:38:51.836Z,20.91
2019-06-26T02:39:51.766Z,20.84
2019-06-26T02:40:51.694Z,20.79
2019-06-26T02:41:51.657Z,20.79
2019-06-26T02:42:51.555Z,20.84
2019-06-26T02:43:51.484Z,20.75
2019-06-26T02:44:54.183Z,20.74
2019-06-26T02:45:51.347Z,20.75
2019-06-26T02:46:51.274Z,20.71
2019-06-26T02:47:51.200Z,20.72
2019-06-26T02:48:51.138Z,20.80
2019-06-26T02:49:51.166Z,20.76
2019-06-26T02:50:50.990Z,20.79
2019-06-26T02:51:50.920Z,20.80
2019-06-26T02:52:50.865Z,20.82
2019-06-26T02:53:50.788Z,20.89
2019-06-26T02:54:50.708Z,20.84
2019-06-26T02:55:50.641Z,20.86
2019-06-26T02:56:50.569Z,20.89
2019-06-26T02:57:50.501Z,20.82
2019-06-26T02:58:50.429Z,20.83
2019-06-26T02:59:50.356Z,20.76
2019-06-26T03:00:50.289Z,20.84
2019-06-26T03:01:50.217Z,20.89
2019-06-26T03:02:50.178Z,20.87
2019-06-26T03:03:50.277Z,20.83
2019-06-26T03:04:50.106Z,20.86
2019-06-26T03:05:49.934Z,20.83
2019-06-26T03:06:49.868Z,20.84
2019-06-26T03:07:49.794Z,20.90
2019-06-26T03:08:49.778Z,20.84
2019-06-26T03:09:49.656Z,20.89
2019-06-26T03:10:49.688Z,20.84
2019-06-26T03:11:49.513Z,20.89
2019-06-26T03:12:49.444Z,20.84
2019-06-26T03:13:49.471Z,20.83
2019-06-26T03:14:49.303Z,20.79
2019-06-26T03:15:50.688Z,20.79
2019-06-26T03:16:49.160Z,20.79
2019-06-26T03:17:55.374Z,20.75
2019-06-26T03:18:49.022Z,20.76
2019-06-26T03:19:48.950Z,20.75
2019-06-26T03:20:48.984Z,20.76
2019-06-26T03:21:48.808Z,20.82
2019-06-26T03:22:48.739Z,20.83
2019-06-26T03:23:48.695Z,20.75
2019-06-26T03:24:48.600Z,20.80
2019-06-26T03:25:48.527Z,20.75
2019-06-26T03:26:48.457Z,20.79
2019-06-26T03:27:48.390Z,20.79
2019-06-26T03:28:48.315Z,20.83
2019-06-26T03:29:48.247Z,20.76
2019-06-26T03:30:48.177Z,20.76
2019-06-26T03:31:48.104Z,20.86
2019-06-26T03:32:48.036Z,20.79
2019-06-26T03:33:48.090Z,20.83
2019-06-26T03:34:47.893Z,20.90
2019-06-26T03:35:47.823Z,20.82
2019-06-26T03:36:47.854Z,20.83
2019-06-26T03:37:47.683Z,20.87
2019-06-26T03:38:47.611Z,20.90
2019-06-26T03:39:47.542Z,20.90
2019-06-26T03:40:47.473Z,20.83
2019-06-26T03:41:47.402Z,20.84
2019-06-26T03:42:47.339Z,20.84
2019-06-26T03:43:47.261Z,20.82
2019-06-26T03:44:47.190Z,20.84
2019-06-26T03:45:47.131Z,20.79
2019-06-26T03:46:47.048Z,20.82
2019-06-26T03:47:46.977Z,20.82
2019-06-26T03:48:46.907Z,20.79
2019-06-26T03:49:46.838Z,20.80
2019-06-26T03:50:46.768Z,20.75
2019-06-26T03:51:46.695Z,20.80
2019-06-26T03:52:46.628Z,20.83
2019-06-26T03:53:46.555Z,20.79
2019-06-26T03:54:46.485Z,20.74
2019-06-26T03:55:46.415Z,20.75
2019-06-26T03:56:46.344Z,20.72
2019-06-26T03:57:46.373Z,20.68
2019-06-26T03:58:46.203Z,20.64
2019-06-26T03:59:46.133Z,20.84
2019-06-26T04:00:46.062Z,20.72
2019-06-26T04:01:45.993Z,20.80
2019-06-26T04:02:45.927Z,20.80
2019-06-26T04:03:45.855Z,20.89
2019-06-26T04:04:45.787Z,20.86
2019-06-26T04:05:45.716Z,20.83
2019-06-26T04:06:45.639Z,20.83
2019-06-26T04:07:45.577Z,20.82
2019-06-26T04:08:45.501Z,20.90
2019-06-26T04:09:45.454Z,20.98
2019-06-26T04:10:45.380Z,21.01
2019-06-26T04:11:45.287Z,20.87
2019-06-26T04:12:45.321Z,20.94
2019-06-26T04:13:45.152Z,20.94
2019-06-26T04:14:45.076Z,21.05
2019-06-26T04:15:45.005Z,20.99
2019-06-26T04:16:44.935Z,20.94
2019-06-26T04:17:44.865Z,21.04
2019-06-26T04:18:44.795Z,20.93
2019-06-26T04:19:44.734Z,21.09
2019-06-26T04:20:44.672Z,21.08
2019-06-26T04:21:44.585Z,21.11
2019-06-26T04:22:47.430Z,21.20
2019-06-26T04:23:44.443Z,21.17
2019-06-26T04:24:44.459Z,21.17
2019-06-26T04:25:44.314Z,21.20
2019-06-26T04:26:44.233Z,21.14
2019-06-26T04:27:44.162Z,21.26
2019-06-26T04:28:44.093Z,21.33
2019-06-26T04:29:44.022Z,21.35
2019-06-26T04:30:43.954Z,21.36
2019-06-26T04:31:43.881Z,21.39
2019-06-26T04:32:43.812Z,21.36
2019-06-26T04:33:43.844Z,21.44
2019-06-26T04:34:43.671Z,21.54
2019-06-26T04:35:43.603Z,21.57
2019-06-26T04:36:43.533Z,21.51
2019-06-26T04:37:43.461Z,21.60
2019-06-26T04:38:43.394Z,21.70
2019-06-26T04:39:43.322Z,21.64
2019-06-26T04:40:43.251Z,21.63
2019-06-26T04:41:43.181Z,21.66
2019-06-26T04:42:43.110Z,21.66
2019-06-26T04:43:43.041Z,21.70
2019-06-26T04:44:42.971Z,21.75
2019-06-26T04:45:57.128Z,21.78
2019-06-26T04:46:42.881Z,21.78
2019-06-26T04:47:42.761Z,21.89
2019-06-26T04:48:42.691Z,21.89
2019-06-26T04:49:42.642Z,21.89
2019-06-26T04:50:42.553Z,21.92
2019-06-26T04:51:42.481Z,21.91
2019-06-26T04:52:42.411Z,21.86
2019-06-26T04:53:42.342Z,21.95
2019-06-26T04:54:42.271Z,21.98
2019-06-26T04:55:42.201Z,22.01
2019-06-26T04:56:42.132Z,21.97
2019-06-26T04:57:42.062Z,22.04
2019-06-26T04:58:41.993Z,22.07
2019-06-26T04:59:41.927Z,22.10
2019-06-26T05:00:41.853Z,22.12
2019-06-26T05:01:41.785Z,22.16
2019-06-26T05:02:41.714Z,22.17
2019-06-26T05:03:41.654Z,22.17
2019-06-26T05:04:41.575Z,22.12
2019-06-26T05:05:44.453Z,22.31
2019-06-26T05:06:41.437Z,22.24
2019-06-26T05:07:41.369Z,22.26
2019-06-26T05:08:41.298Z,22.38
2019-06-26T05:09:41.226Z,22.42
2019-06-26T05:10:41.265Z,22.46
2019-06-26T05:11:41.087Z,22.50
2019-06-26T05:12:41.124Z,22.46
2019-06-26T05:13:40.953Z,22.50
2019-06-26T05:14:40.891Z,22.57
2019-06-26T05:15:40.919Z,22.63
2019-06-26T05:16:40.741Z,22.65
2019-06-26T05:17:40.671Z,22.74
2019-06-26T05:18:40.602Z,22.81
2019-06-26T05:19:40.532Z,22.79
2019-06-26T05:20:40.563Z,22.83
2019-06-26T05:21:40.394Z,22.94
2019-06-26T05:22:40.326Z,23.07
2019-06-26T05:23:40.255Z,23.05
2019-06-26T05:24:40.190Z,23.12
2019-06-26T05:25:40.118Z,23.12
2019-06-26T05:26:40.049Z,23.11
2019-06-26T05:27:39.979Z,23.23
2019-06-26T05:28:39.911Z,23.24
2019-06-26T05:29:39.842Z,23.17
2019-06-26T05:30:39.772Z,23.22
2019-06-26T05:31:39.702Z,23.24
2019-06-26T05:32:39.634Z,23.26
2019-06-26T05:33:39.580Z,23.29
2019-06-26T05:34:39.499Z,23.38
2019-06-26T05:35:39.466Z,23.40
2019-06-26T05:36:39.362Z,23.53
2019-06-26T05:37:39.296Z,23.53
2019-06-26T05:38:39.220Z,23.49
2019-06-26T05:39:39.151Z,23.56
2019-06-26T05:40:39.087Z,23.56
2019-06-26T05:41:39.013Z,23.60
2019-06-26T05:42:38.946Z,23.68
2019-06-26T05:43:38.881Z,23.72
2019-06-26T05:44:38.807Z,23.72
2019-06-26T05:45:38.741Z,23.72
2019-06-26T05:46:38.673Z,23.80
2019-06-26T05:47:38.603Z,23.82
2019-06-26T05:48:38.532Z,23.82
2019-06-26T05:49:38.473Z,23.82
2019-06-26T05:50:38.399Z,23.83
2019-06-26T05:51:38.346Z,23.86
2019-06-26T05:52:42.211Z,23.87
2019-06-26T05:53:38.191Z,23.93
2019-06-26T05:54:38.122Z,23.95
2019-06-26T05:55:38.053Z,24.05
2019-06-26T05:56:37.985Z,24.10
2019-06-26T05:57:41.482Z,24.17
2019-06-26T05:58:37.876Z,24.26
2019-06-26T05:59:37.779Z,24.34
2019-06-26T06:00:37.710Z,24.34
2019-06-26T06:01:37.643Z,24.52
2019-06-26T06:02:37.581Z,24.50
2019-06-26T06:03:37.505Z,24.53
2019-06-26T06:04:37.438Z,24.60
2019-06-26T06:05:37.381Z,24.62
2019-06-26T06:06:41.663Z,24.64
2019-06-26T06:07:37.235Z,24.66
2019-06-26T06:08:37.166Z,24.78
2019-06-26T06:09:37.113Z,24.80
2019-06-26T06:10:37.029Z,24.95
2019-06-26T06:11:36.962Z,24.88
2019-06-26T06:12:36.895Z,24.91
2019-06-26T06:13:36.825Z,24.97
2019-06-26T06:14:36.758Z,24.95
2019-06-26T06:15:36.691Z,24.94
2019-06-26T06:16:46.947Z,24.86
2019-06-26T06:17:36.556Z,24.90
2019-06-26T06:18:36.590Z,25.01
2019-06-26T06:19:36.417Z,25.02
2019-06-26T06:20:36.349Z,25.09
2019-06-26T06:21:36.284Z,25.02
2019-06-26T06:22:36.223Z,25.10
2019-06-26T06:23:36.145Z,25.09
2019-06-26T06:24:36.080Z,25.20
2019-06-26T06:25:36.011Z,25.16
2019-06-26T06:26:35.943Z,25.19
2019-06-26T06:27:35.874Z,25.19
2019-06-26T06:28:35.809Z,25.30
2019-06-26T06:29:35.739Z,25.31
2019-06-26T06:30:35.674Z,25.42
2019-06-26T06:31:35.614Z,25.46
2019-06-26T06:32:35.538Z,25.42
2019-06-26T06:33:35.469Z,25.45
2019-06-26T06:34:35.431Z,25.50
2019-06-26T06:35:35.333Z,25.62
2019-06-26T06:36:35.267Z,25.59
2019-06-26T06:37:35.199Z,25.57
2019-06-26T06:38:35.145Z,25.75
2019-06-26T06:39:35.063Z,25.74
2019-06-26T06:40:35.002Z,25.79
2019-06-26T06:41:34.930Z,25.90
2019-06-26T06:42:34.864Z,25.94
2019-06-26T06:43:34.796Z,26.07
2019-06-26T06:44:34.726Z,26.09
2019-06-26T06:45:34.659Z,26.15
2019-06-26T06:46:34.592Z,26.20
2019-06-26T06:47:34.524Z,26.27
2019-06-26T06:48:34.457Z,26.43
2019-06-26T06:49:34.390Z,26.42
2019-06-26T06:50:34.322Z,26.57
2019-06-26T06:51:34.268Z,26.58
2019-06-26T06:52:34.189Z,26.58
2019-06-26T06:53:34.121Z,26.62
2019-06-26T06:54:34.054Z,26.75
2019-06-26T06:55:33.995Z,26.69
2019-06-26T06:56:34.252Z,26.89
2019-06-26T06:57:33.853Z,26.89
2019-06-26T06:58:33.786Z,26.97
2019-06-26T06:59:33.718Z,26.97
2019-06-26T07:00:33.719Z,26.98
2019-06-26T07:01:33.584Z,26.99
2019-06-26T07:02:33.517Z,27.09
2019-06-26T07:03:33.451Z,27.17
2019-06-26T07:05:30.886Z,27.38
2019-06-26T07:06:30.825Z,27.38
2019-06-26T07:07:30.754Z,27.35
2019-06-26T07:08:30.684Z,27.38
2019-06-26T07:09:30.618Z,27.42
2019-06-26T07:10:30.551Z,27.36
2019-06-26T07:11:30.483Z,27.50
2019-06-26T07:12:30.416Z,27.54
2019-06-26T07:13:30.382Z,27.58
2019-06-26T07:14:30.312Z,27.54
2019-06-26T07:15:30.218Z,27.60
2019-06-26T07:16:30.153Z,27.65
2019-06-26T07:17:30.086Z,27.72
2019-06-26T07:18:30.021Z,27.82
2019-06-26T07:19:32.577Z,27.79
2019-06-26T07:20:29.882Z,27.89
2019-06-26T07:21:29.819Z,27.91
2019-06-26T07:22:29.758Z,27.97
2019-06-26T07:23:29.681Z,27.98
2019-06-26T07:24:29.615Z,28.06
2019-06-26T07:25:29.549Z,28.06
2019-06-26T07:26:29.482Z,28.13
2019-06-26T07:27:29.429Z,28.22
2019-06-26T07:28:29.352Z,28.24
2019-06-26T07:29:29.384Z,28.39
2019-06-26T07:30:29.217Z,28.31
2019-06-26T07:31:29.148Z,28.31
2019-06-26T07:32:29.085Z,28.43
2019-06-26T07:33:29.033Z,28.49
2019-06-26T07:34:28.953Z,28.54
2019-06-26T07:35:28.884Z,28.56
2019-06-26T07:36:28.818Z,28.71
2019-06-26T07:37:28.753Z,28.63
2019-06-26T07:38:28.684Z,28.71
2019-06-26T07:39:28.617Z,28.65
2019-06-26T07:40:28.552Z,28.66
2019-06-26T07:41:28.485Z,28.69
2019-06-26T07:42:28.478Z,28.72
2019-06-26T07:43:28.355Z,28.80
2019-06-26T07:44:28.466Z,28.96
2019-06-26T07:45:28.234Z,28.90
2019-06-26T07:46:28.153Z,28.90
2019-06-26T07:47:41.892Z,28.93
2019-06-26T07:48:28.020Z,28.94
2019-06-26T07:49:27.992Z,29.00
2019-06-26T07:50:27.988Z,29.07
2019-06-26T07:51:27.820Z,29.13
2019-06-26T07:52:27.754Z,29.06
2019-06-26T07:53:27.758Z,29.09
2019-06-26T07:54:27.624Z,29.11
2019-06-26T07:55:27.555Z,29.26
2019-06-26T07:56:27.594Z,29.34
2019-06-26T07:57:27.428Z,29.38
2019-06-26T07:58:27.357Z,29.38
2019-06-26T07:59:27.290Z,29.31
2019-06-26T08:00:31.185Z,29.28
2019-06-26T08:01:27.161Z,29.26
2019-06-26T08:02:27.096Z,29.18
2019-06-26T08:03:27.026Z,29.23
2019-06-26T08:04:26.960Z,29.40
2019-06-26T08:05:26.897Z,29.37
2019-06-26T08:06:26.850Z,29.47
2019-06-26T08:07:26.763Z,29.40
2019-06-26T08:08:26.726Z,29.46
2019-06-26T08:09:26.634Z,29.55
2019-06-26T08:10:26.573Z,29.53
2019-06-26T08:11:26.497Z,29.55
2019-06-26T08:12:26.431Z,29.56
2019-06-26T08:13:26.368Z,29.59
2019-06-26T08:14:26.341Z,29.66
2019-06-26T08:15:26.248Z,29.59
2019-06-26T08:16:26.171Z,29.62
2019-06-26T08:17:26.106Z,29.65
2019-06-26T08:18:26.037Z,29.74
2019-06-26T08:19:25.974Z,29.63
2019-06-26T08:20:25.903Z,29.71
2019-06-26T08:21:25.838Z,29.75
2019-06-26T08:22:25.772Z,29.75
2019-06-26T08:23:25.709Z,29.84
2019-06-26T08:24:25.639Z,29.84
2019-06-26T08:25:25.573Z,29.85
2019-06-26T08:26:25.509Z,29.84
2019-06-26T08:27:25.441Z,30.02
2019-06-26T08:28:25.376Z,29.97
2019-06-26T08:29:25.322Z,29.97
2019-06-26T08:30:25.245Z,29.85
2019-06-26T08:31:25.179Z,29.63
2019-06-26T08:32:26.106Z,29.71
2019-06-26T08:33:25.048Z,29.71
2019-06-26T08:34:24.984Z,29.87
2019-06-26T08:35:25.131Z,29.80
2019-06-26T08:36:24.850Z,29.85
2019-06-26T08:37:24.785Z,29.95
2019-06-26T08:38:24.718Z,30.02
2019-06-26T08:39:24.739Z,30.03
2019-06-26T08:40:24.588Z,30.14
2019-06-26T08:41:24.526Z,30.17
2019-06-26T08:42:24.455Z,30.14
2019-06-26T08:43:24.403Z,30.29
2019-06-26T08:44:24.324Z,30.29
2019-06-26T08:45:24.261Z,30.43
2019-06-26T08:46:24.192Z,30.46
2019-06-26T08:47:24.126Z,30.44
2019-06-26T08:48:39.029Z,30.49
2019-06-26T08:49:26.061Z,30.40
2019-06-26T08:50:23.930Z,30.43
2019-06-26T08:51:23.864Z,30.59
2019-06-26T08:52:23.806Z,30.57
2019-06-26T08:53:23.732Z,30.59
2019-06-26T08:54:23.667Z,30.62
2019-06-26T08:55:23.601Z,30.62
2019-06-26T08:56:23.535Z,30.60
2019-06-26T08:57:23.472Z,30.71
2019-06-26T08:58:23.404Z,30.64
2019-06-26T08:59:23.340Z,30.52
2019-06-26T09:00:23.296Z,30.44
2019-06-26T09:01:23.275Z,30.43
2019-06-26T09:02:23.150Z,30.36
2019-06-26T09:03:23.076Z,30.34
2019-06-26T09:04:23.012Z,30.40
2019-06-26T09:05:22.952Z,30.46
2019-06-26T09:06:22.881Z,30.37
2019-06-26T09:07:22.815Z,30.52
2019-06-26T09:08:23.029Z,30.67
2019-06-26T09:09:22.685Z,30.75
2019-06-26T09:10:22.620Z,30.85
2019-06-26T09:11:22.553Z,30.71
2019-06-26T09:12:22.490Z,30.65
2019-06-26T09:13:22.425Z,30.52
2019-06-26T09:14:22.358Z,30.65
2019-06-26T09:15:22.291Z,30.71
2019-06-26T09:16:22.228Z,30.87
2019-06-26T09:17:22.161Z,30.96
2019-06-26T09:18:34.770Z,30.99
2019-06-26T09:19:22.029Z,30.99
2019-06-26T09:20:21.965Z,31.02
2019-06-26T09:21:21.900Z,31.11
2019-06-26T09:22:21.834Z,31.16
2019-06-26T09:23:21.768Z,31.15
2019-06-26T09:24:21.706Z,31.11
2019-06-26T09:25:22.562Z,31.15
2019-06-26T09:26:21.578Z,31.24
2019-06-26T09:27:21.511Z,31.23
2019-06-26T09:28:21.443Z,31.14
2019-06-26T09:29:23.750Z,31.05
2019-06-26T09:30:21.327Z,31.05
2019-06-26T09:31:21.247Z,31.01
2019-06-26T09:32:21.183Z,31.04
2019-06-26T09:33:21.117Z,31.20
2019-06-26T09:34:21.060Z,31.23
2019-06-26T09:35:20.984Z,31.14
2019-06-26T09:36:20.919Z,31.09
2019-06-26T09:37:20.863Z,31.11
2019-06-26T09:38:20.792Z,31.27
2019-06-26T09:39:20.725Z,31.49
2019-06-26T09:40:20.658Z,31.61
2019-06-26T09:41:23.214Z,31.79
2019-06-26T09:42:20.529Z,31.71
2019-06-26T09:43:20.465Z,31.58
2019-06-26T09:45:07.894Z,31.61
2019-06-26T09:47:05.333Z,31.66
2019-06-26T09:48:05.269Z,31.79
2019-06-26T09:49:05.204Z,31.82
2019-06-26T09:54:54.018Z,31.84
2019-06-26T09:55:53.954Z,31.90
2019-06-26T09:56:53.887Z,31.75
2019-06-26T09:57:53.819Z,31.87
2019-06-26T09:58:53.755Z,32.06
2019-06-26T09:59:53.693Z,32.14
2019-06-26T10:00:56.448Z,32.06
2019-06-26T10:03:45.279Z,32.39
2019-06-26T10:04:43.497Z,32.42
2019-06-26T10:05:43.434Z,32.38
2019-06-26T10:07:57.151Z,32.38
2019-06-26T10:08:54.117Z,32.36
2019-06-26T10:09:50.781Z,32.40
2019-06-26T10:10:50.688Z,32.33
2019-06-26T10:11:50.623Z,32.38
2019-06-26T10:12:50.555Z,32.39
2019-06-26T10:15:32.915Z,32.36
2019-06-26T10:16:35.472Z,32.36
2019-06-26T10:18:18.510Z,32.38
2019-06-26T10:19:17.836Z,32.27
2019-06-26T10:21:50.150Z,32.38
2019-06-26T10:22:50.496Z,32.50
2019-06-26T10:23:50.010Z,32.50
2019-06-26T10:25:32.451Z,32.57
2019-06-26T10:26:32.799Z,32.70
2019-06-26T10:29:17.311Z,32.91
2019-06-26T10:30:17.248Z,33.10
2019-06-26T10:31:18.442Z,33.10
2019-06-26T10:32:20.545Z,32.95
2019-06-26T10:34:19.582Z,32.98
2019-06-26T10:35:19.489Z,32.95
2019-06-26T10:36:19.425Z,32.94
2019-06-26T10:37:19.357Z,32.84
2019-06-26T10:38:19.293Z,32.57
2019-06-26T10:39:19.238Z,32.62
2019-06-26T10:40:19.166Z,32.72
2019-06-26T10:41:19.100Z,32.83
2019-06-26T10:42:19.047Z,32.83
2019-06-26T10:43:18.968Z,32.82
2019-06-26T10:44:18.904Z,32.97
2019-06-26T10:45:18.871Z,32.98
2019-06-26T10:46:18.775Z,32.97
2019-06-26T10:47:18.710Z,32.97
2019-06-26T10:48:18.646Z,32.94
2019-06-26T10:49:26.990Z,32.79
2019-06-26T10:50:18.516Z,32.94
2019-06-26T10:51:18.471Z,32.98
2019-06-26T10:52:18.394Z,33.09
2019-06-26T10:53:18.322Z,33.26
2019-06-26T10:54:18.260Z,33.36
2019-06-26T10:55:18.193Z,33.37
2019-06-26T10:56:18.129Z,33.48
2019-06-26T10:57:18.066Z,33.47
2019-06-26T10:58:18.001Z,33.39
2019-06-26T10:59:17.944Z,33.24
2019-06-26T11:00:17.911Z,33.20
2019-06-26T11:01:17.807Z,33.29
2019-06-26T11:02:17.744Z,33.32
2019-06-26T11:03:17.683Z,33.24
2019-06-26T11:04:17.616Z,33.48
2019-06-26T11:05:17.551Z,33.63
2019-06-26T11:06:17.489Z,33.71
2019-06-26T11:07:17.422Z,33.82
2019-06-26T11:08:17.361Z,33.97
2019-06-26T11:09:17.294Z,34.05
2019-06-26T11:10:17.230Z,34.18
2019-06-26T11:11:17.167Z,34.01
2019-06-26T11:12:17.106Z,33.86
2019-06-26T11:13:17.042Z,33.83
2019-06-26T11:14:16.975Z,33.88
2019-06-26T11:15:16.911Z,33.76
2019-06-26T11:16:16.848Z,33.82
2019-06-26T11:17:16.784Z,34.05
2019-06-26T11:18:16.721Z,34.03
2019-06-26T11:19:16.662Z,34.13
2019-06-26T11:20:16.595Z,34.19
2019-06-26T11:21:16.531Z,34.14
2019-06-26T11:22:16.470Z,34.25
2019-06-26T11:23:16.407Z,34.34
2019-06-26T11:24:16.349Z,34.34
2019-06-26T11:25:16.286Z,34.48
2019-06-26T11:26:16.222Z,34.49
2019-06-26T11:27:16.162Z,34.49
2019-06-26T11:28:16.097Z,34.56
2019-06-26T11:29:16.038Z,34.72
2019-06-26T11:30:15.982Z,34.72
2019-06-26T11:31:16.059Z,34.85
2019-06-26T11:32:15.855Z,34.89
2019-06-26T11:33:15.792Z,35.10
2019-06-26T11:34:15.733Z,35.14
2019-06-26T11:35:15.682Z,35.34
2019-06-26T11:36:15.613Z,35.57
2019-06-26T11:37:15.553Z,35.65
2019-06-26T11:38:15.496Z,35.75
2019-06-26T11:39:15.436Z,35.79
2019-06-26T11:40:15.378Z,36.04
2019-06-26T11:41:15.319Z,36.42
2019-06-26T11:42:15.261Z,36.82
2019-06-26T11:45:16.004Z,36.66
2019-06-26T11:48:14.950Z,37.76
2019-06-26T11:49:15.401Z,38.17
2019-06-26T11:50:15.012Z,38.28
2019-06-26T11:54:14.588Z,37.55
2019-06-26T11:55:14.531Z,37.49
2019-06-26T11:56:14.479Z,37.60
2019-06-26T11:57:14.422Z,37.62
2019-06-26T11:58:14.384Z,37.94
2019-06-26T12:00:14.259Z,38.44
2019-06-26T12:01:14.204Z,38.29
2019-06-26T12:02:14.151Z,38.55
2019-06-26T12:03:14.095Z,38.63
2019-06-26T12:04:14.041Z,38.44
2019-06-26T12:05:14.021Z,38.82
2019-06-26T12:06:18.814Z,39.23
2019-06-26T12:07:13.889Z,39.58
2019-06-26T12:08:13.827Z,39.55
2019-06-26T12:09:13.774Z,39.09
2019-06-26T12:10:13.841Z,39.28
2019-06-26T12:11:13.667Z,39.73
2019-06-26T12:12:13.619Z,39.49
2019-06-26T12:13:13.562Z,39.50
2019-06-26T12:14:13.509Z,39.77
2019-06-26T12:15:13.456Z,39.75
2019-06-26T12:16:13.407Z,40.11
2019-06-26T12:17:13.351Z,39.76
2019-06-26T12:18:13.301Z,39.48
2019-06-26T12:19:13.247Z,38.91
2019-06-26T12:20:19.292Z,38.82
2019-06-26T12:21:13.141Z,39.07
2019-06-26T12:22:13.089Z,39.07
2019-06-26T12:23:13.037Z,38.88
2019-06-26T12:24:12.985Z,38.89
2019-06-26T12:25:12.946Z,39.07
2019-06-26T12:26:12.880Z,38.82
2019-06-26T12:27:12.829Z,39.35
2019-06-26T12:28:12.777Z,39.17
2019-06-26T12:29:12.823Z,39.12
2019-06-26T12:30:12.682Z,39.68
2019-06-26T12:31:12.620Z,39.94
2019-06-26T12:32:12.567Z,39.87
2019-06-26T12:33:12.520Z,40.10
2019-06-26T12:34:12.471Z,39.91
2019-06-26T12:35:12.413Z,39.87
2019-06-26T12:36:12.360Z,40.23
2019-06-26T12:37:12.318Z,40.05
2019-06-26T12:38:12.258Z,39.76
2019-06-26T12:39:12.209Z,39.98
2019-06-26T12:40:12.157Z,40.02
2019-06-26T12:41:12.103Z,40.18
2019-06-26T12:42:12.051Z,40.04
2019-06-26T12:43:11.999Z,40.53
2019-06-26T12:44:11.949Z,40.59
2019-06-26T12:45:11.897Z,40.30
2019-06-26T12:46:11.850Z,40.56
2019-06-26T12:47:11.794Z,40.68
2019-06-26T12:48:11.745Z,40.52
2019-06-26T12:49:11.692Z,40.28
2019-06-26T12:50:11.644Z,40.39
2019-06-26T12:51:11.590Z,40.32
2019-06-26T12:52:11.544Z,40.60
2019-06-26T12:53:11.491Z,41.05
2019-06-26T12:54:11.446Z,41.42
2019-06-26T12:55:11.392Z,41.60
2019-06-26T12:56:11.337Z,41.11
2019-06-26T12:57:11.285Z,40.70
2019-06-26T12:58:14.775Z,40.92
2019-06-26T12:59:11.187Z,41.15
2019-06-26T13:00:11.135Z,41.06
2019-06-26T13:01:11.083Z,40.78
2019-06-26T13:02:11.033Z,40.85
2019-06-26T13:03:10.983Z,41.11
2019-06-26T13:04:10.932Z,41.50
2019-06-26T13:05:10.881Z,41.16
2019-06-26T13:06:10.840Z,40.68
2019-06-26T13:08:08.525Z,40.24
2019-06-26T13:09:08.346Z,40.41
2019-06-26T13:10:08.200Z,40.56
2019-06-26T13:11:08.166Z,41.09
2019-06-26T13:12:08.100Z,41.06
2019-06-26T13:13:08.050Z,40.97
2019-06-26T13:14:07.999Z,40.64
2019-06-26T13:15:07.948Z,40.65
2019-06-26T13:16:07.903Z,40.65
2019-06-26T13:17:07.851Z,40.75
2019-06-26T13:18:07.803Z,40.85